METAR Data
IDs: Format: Raw Decoded Include TAF

Data at: 0232 UTC 20 Jan 2022

LRBS 200200Z 26005KT CAVOK M03/M06 Q1021 NOSIG